sensor_id;sensor_type;location;lat;lon;timestamp;P1;durP1;ratioP1;P2;durP2;ratioP2
25479;SDS011;13393;49.378;8.686;2022-10-03T00:05:18;7.95;;;6.50;;
25479;SDS011;13393;49.378;8.686;2022-10-03T00:07:54;10.20;;;7.70;;
25479;SDS011;13393;49.378;8.686;2022-10-03T00:10:27;10.73;;;7.65;;
25479;SDS011;13393;49.378;8.686;2022-10-03T00:12:58;14.00;;;7.18;;
25479;SDS011;13393;49.378;8.686;2022-10-03T00:15:30;9.15;;;6.63;;
25479;SDS011;13393;49.378;8.686;2022-10-03T00:18:01;10.15;;;7.80;;
25479;SDS011;13393;49.378;8.686;2022-10-03T00:20:39;9.50;;;7.28;;
25479;SDS011;13393;49.378;8.686;2022-10-03T00:23:12;10.57;;;7.03;;
25479;SDS011;13393;49.378;8.686;2022-10-03T00:25:41;9.82;;;6.85;;
25479;SDS011;13393;49.378;8.686;2022-10-03T00:28:14;7.82;;;6.68;;
25479;SDS011;13393;49.378;8.686;2022-10-03T00:30:53;11.57;;;7.88;;
25479;SDS011;13393;49.378;8.686;2022-10-03T00:33:23;10.80;;;7.93;;
25479;SDS011;13393;49.378;8.686;2022-10-03T00:35:56;9.30;;;6.65;;
25479;SDS011;13393;49.378;8.686;2022-10-03T00:38:30;10.07;;;7.35;;
25479;SDS011;13393;49.378;8.686;2022-10-03T00:41:03;7.80;;;6.13;;
25479;SDS011;13393;49.378;8.686;2022-10-03T00:46:44;11.90;;;7.60;;
25479;SDS011;13393;49.378;8.686;2022-10-03T00:52:08;10.10;;;6.50;;
25479;SDS011;13393;49.378;8.686;2022-10-03T00:54:51;7.97;;;6.68;;
25479;SDS011;13393;49.378;8.686;2022-10-03T00:57:23;9.52;;;6.43;;
25479;SDS011;13393;49.378;8.686;2022-10-03T01:00:00;7.88;;;5.90;;
25479;SDS011;13393;49.378;8.686;2022-10-03T01:02:31;9.38;;;6.95;;
25479;SDS011;13393;49.378;8.686;2022-10-03T01:05:04;11.68;;;7.00;;
25479;SDS011;13393;49.378;8.686;2022-10-03T01:07:50;8.25;;;6.03;;
25479;SDS011;13393;49.378;8.686;2022-10-03T01:10:22;10.13;;;7.50;;
25479;SDS011;13393;49.378;8.686;2022-10-03T01:12:57;9.00;;;6.60;;
25479;SDS011;13393;49.378;8.686;2022-10-03T01:15:28;9.23;;;7.32;;
25479;SDS011;13393;49.378;8.686;2022-10-03T01:18:00;9.15;;;7.22;;
25479;SDS011;13393;49.378;8.686;2022-10-03T01:20:31;9.90;;;7.22;;
25479;SDS011;13393;49.378;8.686;2022-10-03T01:23:06;8.07;;;6.13;;
25479;SDS011;13393;49.378;8.686;2022-10-03T01:25:38;11.77;;;7.25;;
25479;SDS011;13393;49.378;8.686;2022-10-03T01:31:12;9.18;;;6.65;;
25479;SDS011;13393;49.378;8.686;2022-10-03T01:33:41;8.27;;;6.60;;
25479;SDS011;13393;49.378;8.686;2022-10-03T01:36:09;10.23;;;7.30;;
25479;SDS011;13393;49.378;8.686;2022-10-03T01:38:40;9.38;;;7.03;;
25479;SDS011;13393;49.378;8.686;2022-10-03T01:41:10;10.65;;;7.38;;
25479;SDS011;13393;49.378;8.686;2022-10-03T01:43:40;8.25;;;6.47;;
25479;SDS011;13393;49.378;8.686;2022-10-03T01:46:10;11.02;;;7.18;;
25479;SDS011;13393;49.378;8.686;2022-10-03T01:48:44;18.55;;;11.13;;
25479;SDS011;13393;49.378;8.686;2022-10-03T01:51:18;13.82;;;10.07;;
25479;SDS011;13393;49.378;8.686;2022-10-03T01:53:52;17.63;;;11.48;;
25479;SDS011;13393;49.378;8.686;2022-10-03T01:56:23;21.02;;;12.30;;
25479;SDS011;13393;49.378;8.686;2022-10-03T01:58:54;21.83;;;12.13;;
25479;SDS011;13393;49.378;8.686;2022-10-03T02:01:25;18.85;;;11.75;;
25479;SDS011;13393;49.378;8.686;2022-10-03T02:03:56;18.75;;;10.93;;
25479;SDS011;13393;49.378;8.686;2022-10-03T02:06:27;17.88;;;11.15;;
25479;SDS011;13393;49.378;8.686;2022-10-03T02:09:02;25.15;;;11.73;;
25479;SDS011;13393;49.378;8.686;2022-10-03T02:11:33;15.02;;;10.40;;
25479;SDS011;13393;49.378;8.686;2022-10-03T02:14:05;14.18;;;10.27;;
25479;SDS011;13393;49.378;8.686;2022-10-03T02:16:35;17.75;;;11.18;;
25479;SDS011;13393;49.378;8.686;2022-10-03T02:19:10;20.45;;;11.35;;
25479;SDS011;13393;49.378;8.686;2022-10-03T02:21:44;19.60;;;11.27;;
25479;SDS011;13393;49.378;8.686;2022-10-03T02:24:17;20.63;;;12.27;;
25479;SDS011;13393;49.378;8.686;2022-10-03T02:29:57;20.77;;;12.02;;
25479;SDS011;13393;49.378;8.686;2022-10-03T02:35:27;21.02;;;12.98;;
25479;SDS011;13393;49.378;8.686;2022-10-03T02:38:08;23.17;;;13.13;;
25479;SDS011;13393;49.378;8.686;2022-10-03T02:43:36;20.15;;;12.70;;
25479;SDS011;13393;49.378;8.686;2022-10-03T02:49:01;17.05;;;12.25;;
25479;SDS011;13393;49.378;8.686;2022-10-03T02:57:32;17.35;;;11.43;;
25479;SDS011;13393;49.378;8.686;2022-10-03T03:00:08;18.27;;;12.18;;
25479;SDS011;13393;49.378;8.686;2022-10-03T03:02:50;19.80;;;11.13;;
25479;SDS011;13393;49.378;8.686;2022-10-03T03:05:24;16.75;;;11.20;;
25479;SDS011;13393;49.378;8.686;2022-10-03T03:08:02;15.52;;;11.73;;
25479;SDS011;13393;49.378;8.686;2022-10-03T03:10:51;18.67;;;11.85;;
25479;SDS011;13393;49.378;8.686;2022-10-03T03:13:32;15.30;;;10.25;;
25479;SDS011;13393;49.378;8.686;2022-10-03T03:16:13;14.70;;;10.85;;
25479;SDS011;13393;49.378;8.686;2022-10-03T03:18:45;18.38;;;11.90;;
25479;SDS011;13393;49.378;8.686;2022-10-03T03:21:19;17.65;;;11.73;;
25479;SDS011;13393;49.378;8.686;2022-10-03T03:23:55;14.30;;;10.00;;
25479;SDS011;13393;49.378;8.686;2022-10-03T03:26:39;17.83;;;11.38;;
25479;SDS011;13393;49.378;8.686;2022-10-03T03:29:10;14.70;;;10.73;;
25479;SDS011;13393;49.378;8.686;2022-10-03T03:31:44;14.50;;;10.20;;
25479;SDS011;13393;49.378;8.686;2022-10-03T03:34:13;15.85;;;11.90;;
25479;SDS011;13393;49.378;8.686;2022-10-03T03:36:44;15.88;;;10.65;;
25479;SDS011;13393;49.378;8.686;2022-10-03T03:39:23;16.98;;;11.40;;
25479;SDS011;13393;49.378;8.686;2022-10-03T03:41:58;14.68;;;10.15;;
25479;SDS011;13393;49.378;8.686;2022-10-03T03:44:45;17.67;;;11.52;;
25479;SDS011;13393;49.378;8.686;2022-10-03T03:49:45;16.85;;;10.88;;
25479;SDS011;13393;49.378;8.686;2022-10-03T03:52:20;15.52;;;10.68;;
25479;SDS011;13393;49.378;8.686;2022-10-03T03:57:20;19.60;;;10.75;;
25479;SDS011;13393;49.378;8.686;2022-10-03T04:00:04;18.55;;;11.20;;
25479;SDS011;13393;49.378;8.686;2022-10-03T04:02:38;18.23;;;10.80;;
25479;SDS011;13393;49.378;8.686;2022-10-03T04:05:11;14.43;;;9.45;;
25479;SDS011;13393;49.378;8.686;2022-10-03T04:07:44;13.85;;;9.27;;
25479;SDS011;13393;49.378;8.686;2022-10-03T04:10:19;13.00;;;9.55;;
25479;SDS011;13393;49.378;8.686;2022-10-03T04:13:01;13.75;;;9.02;;
25479;SDS011;13393;49.378;8.686;2022-10-03T04:15:34;15.52;;;9.55;;
25479;SDS011;13393;49.378;8.686;2022-10-03T04:18:11;9.20;;;7.85;;
25479;SDS011;13393;49.378;8.686;2022-10-03T04:21:05;14.38;;;9.65;;
25479;SDS011;13393;49.378;8.686;2022-10-03T04:23:40;11.32;;;8.65;;
25479;SDS011;13393;49.378;8.686;2022-10-03T04:26:15;14.00;;;9.48;;
25479;SDS011;13393;49.378;8.686;2022-10-03T04:28:49;13.30;;;9.20;;
25479;SDS011;13393;49.378;8.686;2022-10-03T04:31:23;14.27;;;9.43;;
25479;SDS011;13393;49.378;8.686;2022-10-03T04:33:56;14.32;;;8.85;;
25479;SDS011;13393;49.378;8.686;2022-10-03T04:36:37;11.52;;;8.40;;
25479;SDS011;13393;49.378;8.686;2022-10-03T04:39:08;12.85;;;9.38;;
25479;SDS011;13393;49.378;8.686;2022-10-03T04:41:38;13.93;;;8.13;;
25479;SDS011;13393;49.378;8.686;2022-10-03T04:44:08;15.65;;;8.98;;
25479;SDS011;13393;49.378;8.686;2022-10-03T04:46:41;12.70;;;8.48;;
25479;SDS011;13393;49.378;8.686;2022-10-03T04:49:10;10.93;;;7.85;;
25479;SDS011;13393;49.378;8.686;2022-10-03T04:51:48;12.73;;;7.78;;
25479;SDS011;13393;49.378;8.686;2022-10-03T04:54:20;15.27;;;8.20;;
25479;SDS011;13393;49.378;8.686;2022-10-03T04:56:49;11.27;;;7.65;;
25479;SDS011;13393;49.378;8.686;2022-10-03T05:02:16;11.63;;;7.35;;
25479;SDS011;13393;49.378;8.686;2022-10-03T05:04:53;11.63;;;7.60;;
25479;SDS011;13393;49.378;8.686;2022-10-03T05:07:24;11.73;;;6.95;;
25479;SDS011;13393;49.378;8.686;2022-10-03T05:09:55;11.57;;;7.20;;
25479;SDS011;13393;49.378;8.686;2022-10-03T05:12:25;11.13;;;8.43;;
25479;SDS011;13393;49.378;8.686;2022-10-03T05:15:01;12.30;;;7.80;;
25479;SDS011;13393;49.378;8.686;2022-10-03T05:17:35;12.25;;;7.68;;
25479;SDS011;13393;49.378;8.686;2022-10-03T05:20:13;9.15;;;6.85;;
25479;SDS011;13393;49.378;8.686;2022-10-03T05:22:43;13.38;;;8.95;;
25479;SDS011;13393;49.378;8.686;2022-10-03T05:25:13;15.60;;;7.18;;
25479;SDS011;13393;49.378;8.686;2022-10-03T05:27:43;10.38;;;8.05;;
25479;SDS011;13393;49.378;8.686;2022-10-03T05:30:15;13.18;;;8.45;;
25479;SDS011;13393;49.378;8.686;2022-10-03T05:32:46;12.23;;;8.57;;
25479;SDS011;13393;49.378;8.686;2022-10-03T05:35:24;10.48;;;6.90;;
25479;SDS011;13393;49.378;8.686;2022-10-03T05:38:02;10.25;;;7.75;;
25479;SDS011;13393;49.378;8.686;2022-10-03T05:40:33;10.25;;;8.13;;
25479;SDS011;13393;49.378;8.686;2022-10-03T05:43:01;9.57;;;7.70;;
25479;SDS011;13393;49.378;8.686;2022-10-03T05:45:30;15.75;;;9.25;;
25479;SDS011;13393;49.378;8.686;2022-10-03T05:48:12;14.00;;;8.65;;
25479;SDS011;13393;49.378;8.686;2022-10-03T05:50:41;13.75;;;9.15;;
25479;SDS011;13393;49.378;8.686;2022-10-03T05:56:04;12.70;;;8.63;;
25479;SDS011;13393;49.378;8.686;2022-10-03T05:58:38;12.63;;;8.98;;
25479;SDS011;13393;49.378;8.686;2022-10-03T06:01:10;10.27;;;7.50;;
25479;SDS011;13393;49.378;8.686;2022-10-03T06:03:48;10.85;;;8.18;;
25479;SDS011;13393;49.378;8.686;2022-10-03T06:06:17;11.07;;;8.00;;
25479;SDS011;13393;49.378;8.686;2022-10-03T06:08:49;13.90;;;7.95;;
25479;SDS011;13393;49.378;8.686;2022-10-03T06:11:20;10.95;;;8.43;;
25479;SDS011;13393;49.378;8.686;2022-10-03T06:13:59;10.75;;;8.18;;
25479;SDS011;13393;49.378;8.686;2022-10-03T06:16:31;11.77;;;7.50;;
25479;SDS011;13393;49.378;8.686;2022-10-03T06:19:04;10.32;;;7.78;;
25479;SDS011;13393;49.378;8.686;2022-10-03T06:24:24;9.93;;;7.07;;
25479;SDS011;13393;49.378;8.686;2022-10-03T06:27:10;10.85;;;8.07;;
25479;SDS011;13393;49.378;8.686;2022-10-03T06:32:54;9.02;;;7.03;;
25479;SDS011;13393;49.378;8.686;2022-10-03T06:35:39;10.75;;;8.40;;
25479;SDS011;13393;49.378;8.686;2022-10-03T06:38:38;13.13;;;8.60;;
25479;SDS011;13393;49.378;8.686;2022-10-03T06:44:00;8.67;;;7.37;;
25479;SDS011;13393;49.378;8.686;2022-10-03T06:46:36;12.60;;;7.50;;
25479;SDS011;13393;49.378;8.686;2022-10-03T06:52:07;8.83;;;7.23;;
25479;SDS011;13393;49.378;8.686;2022-10-03T07:00:22;9.98;;;7.25;;
25479;SDS011;13393;49.378;8.686;2022-10-03T07:11:25;7.05;;;6.20;;
25479;SDS011;13393;49.378;8.686;2022-10-03T07:14:08;11.35;;;7.18;;
25479;SDS011;13393;49.378;8.686;2022-10-03T07:16:46;9.02;;;7.18;;
25479;SDS011;13393;49.378;8.686;2022-10-03T07:27:36;15.10;;;9.50;;
25479;SDS011;13393;49.378;8.686;2022-10-03T07:30:08;17.02;;;10.23;;
25479;SDS011;13393;49.378;8.686;2022-10-03T07:35:39;21.17;;;12.70;;
25479;SDS011;13393;49.378;8.686;2022-10-03T07:38:36;19.80;;;12.40;;
25479;SDS011;13393;49.378;8.686;2022-10-03T07:41:38;15.05;;;12.32;;
25479;SDS011;13393;49.378;8.686;2022-10-03T07:44:24;15.32;;;11.10;;
25479;SDS011;13393;49.378;8.686;2022-10-03T07:54:57;16.45;;;11.70;;
25479;SDS011;13393;49.378;8.686;2022-10-03T08:00:26;19.50;;;13.27;;
25479;SDS011;13393;49.378;8.686;2022-10-03T08:03:15;18.15;;;12.20;;
25479;SDS011;13393;49.378;8.686;2022-10-03T08:08:43;18.38;;;12.23;;
25479;SDS011;13393;49.378;8.686;2022-10-03T08:11:29;16.25;;;11.80;;
25479;SDS011;13393;49.378;8.686;2022-10-03T08:13:59;16.52;;;10.30;;
25479;SDS011;13393;49.378;8.686;2022-10-03T08:16:36;20.02;;;11.00;;
25479;SDS011;13393;49.378;8.686;2022-10-03T08:19:21;17.67;;;10.38;;
25479;SDS011;13393;49.378;8.686;2022-10-03T08:21:55;12.00;;;8.93;;
25479;SDS011;13393;49.378;8.686;2022-10-03T08:24:27;22.73;;;12.10;;
25479;SDS011;13393;49.378;8.686;2022-10-03T08:27:08;20.88;;;12.07;;
25479;SDS011;13393;49.378;8.686;2022-10-03T08:46:03;18.75;;;10.50;;
25479;SDS011;13393;49.378;8.686;2022-10-03T08:48:46;17.73;;;10.23;;
25479;SDS011;13393;49.378;8.686;2022-10-03T08:56:54;19.33;;;11.70;;
25479;SDS011;13393;49.378;8.686;2022-10-03T08:59:28;17.17;;;10.45;;
25479;SDS011;13393;49.378;8.686;2022-10-03T09:07:48;18.73;;;10.70;;
25479;SDS011;13393;49.378;8.686;2022-10-03T09:18:57;17.42;;;10.27;;
25479;SDS011;13393;49.378;8.686;2022-10-03T09:33:11;13.93;;;6.75;;
25479;SDS011;13393;49.378;8.686;2022-10-03T09:35:58;22.77;;;8.90;;
25479;SDS011;13393;49.378;8.686;2022-10-03T09:38:42;15.82;;;9.57;;
25479;SDS011;13393;49.378;8.686;2022-10-03T09:41:25;16.50;;;10.07;;
25479;SDS011;13393;49.378;8.686;2022-10-03T09:44:11;16.33;;;10.57;;
25479;SDS011;13393;49.378;8.686;2022-10-03T09:46:54;18.98;;;11.07;;
25479;SDS011;13393;49.378;8.686;2022-10-03T09:49:47;16.83;;;10.85;;
25479;SDS011;13393;49.378;8.686;2022-10-03T09:52:25;20.20;;;12.23;;
25479;SDS011;13393;49.378;8.686;2022-10-03T10:00:20;20.38;;;11.60;;
25479;SDS011;13393;49.378;8.686;2022-10-03T10:03:05;19.58;;;12.35;;
25479;SDS011;13393;49.378;8.686;2022-10-03T10:05:48;21.50;;;10.95;;
25479;SDS011;13393;49.378;8.686;2022-10-03T10:08:25;20.35;;;10.75;;
25479;SDS011;13393;49.378;8.686;2022-10-03T10:11:06;15.30;;;8.98;;
25479;SDS011;13393;49.378;8.686;2022-10-03T10:19:37;10.68;;;4.70;;
25479;SDS011;13393;49.378;8.686;2022-10-03T10:28:02;12.63;;;6.20;;
25479;SDS011;13393;49.378;8.686;2022-10-03T10:33:33;9.80;;;4.45;;
25479;SDS011;13393;49.378;8.686;2022-10-03T10:36:11;7.93;;;4.32;;
25479;SDS011;13393;49.378;8.686;2022-10-03T10:39:09;9.35;;;4.90;;
25479;SDS011;13393;49.378;8.686;2022-10-03T10:44:40;10.35;;;4.78;;
25479;SDS011;13393;49.378;8.686;2022-10-03T10:47:20;10.60;;;5.03;;
25479;SDS011;13393;49.378;8.686;2022-10-03T10:52:41;11.05;;;4.90;;
25479;SDS011;13393;49.378;8.686;2022-10-03T11:00:54;8.20;;;3.78;;
25479;SDS011;13393;49.378;8.686;2022-10-03T11:03:55;8.82;;;3.47;;
25479;SDS011;13393;49.378;8.686;2022-10-03T11:09:25;8.55;;;3.10;;
25479;SDS011;13393;49.378;8.686;2022-10-03T11:12:04;8.52;;;4.03;;
25479;SDS011;13393;49.378;8.686;2022-10-03T11:23:06;6.78;;;2.92;;
25479;SDS011;13393;49.378;8.686;2022-10-03T11:26:02;5.82;;;2.83;;
25479;SDS011;13393;49.378;8.686;2022-10-03T11:28:49;10.82;;;3.72;;
25479;SDS011;13393;49.378;8.686;2022-10-03T11:34:18;7.25;;;2.50;;
25479;SDS011;13393;49.378;8.686;2022-10-03T11:39:22;9.95;;;2.85;;
25479;SDS011;13393;49.378;8.686;2022-10-03T11:41:53;8.32;;;2.60;;
25479;SDS011;13393;49.378;8.686;2022-10-03T11:44:22;7.07;;;2.90;;
25479;SDS011;13393;49.378;8.686;2022-10-03T11:47:05;8.00;;;2.85;;
25479;SDS011;13393;49.378;8.686;2022-10-03T11:49:52;14.13;;;3.75;;
25479;SDS011;13393;49.378;8.686;2022-10-03T11:52:26;11.40;;;3.38;;
25479;SDS011;13393;49.378;8.686;2022-10-03T11:55:00;8.30;;;3.08;;
25479;SDS011;13393;49.378;8.686;2022-10-03T11:57:29;8.77;;;2.95;;
25479;SDS011;13393;49.378;8.686;2022-10-03T11:59:57;9.15;;;2.80;;
25479;SDS011;13393;49.378;8.686;2022-10-03T12:02:34;5.90;;;2.80;;
25479;SDS011;13393;49.378;8.686;2022-10-03T12:05:05;7.38;;;2.67;;
25479;SDS011;13393;49.378;8.686;2022-10-03T12:07:37;8.73;;;2.60;;
25479;SDS011;13393;49.378;8.686;2022-10-03T12:10:28;8.18;;;2.35;;
25479;SDS011;13393;49.378;8.686;2022-10-03T12:12:57;9.77;;;3.03;;
25479;SDS011;13393;49.378;8.686;2022-10-03T12:15:27;7.78;;;2.65;;
25479;SDS011;13393;49.378;8.686;2022-10-03T12:17:58;9.60;;;2.60;;
25479;SDS011;13393;49.378;8.686;2022-10-03T12:20:29;6.32;;;2.30;;
25479;SDS011;13393;49.378;8.686;2022-10-03T12:22:59;6.70;;;2.30;;
25479;SDS011;13393;49.378;8.686;2022-10-03T12:25:29;7.35;;;2.90;;
25479;SDS011;13393;49.378;8.686;2022-10-03T12:27:59;5.78;;;2.53;;
25479;SDS011;13393;49.378;8.686;2022-10-03T12:30:27;6.63;;;2.30;;
25479;SDS011;13393;49.378;8.686;2022-10-03T12:33:00;7.35;;;2.78;;
25479;SDS011;13393;49.378;8.686;2022-10-03T12:35:34;5.70;;;2.35;;
25479;SDS011;13393;49.378;8.686;2022-10-03T12:38:11;6.03;;;2.53;;
25479;SDS011;13393;49.378;8.686;2022-10-03T12:40:41;6.28;;;2.15;;
25479;SDS011;13393;49.378;8.686;2022-10-03T12:43:14;7.68;;;2.78;;
25479;SDS011;13393;49.378;8.686;2022-10-03T12:45:46;5.53;;;2.50;;
25479;SDS011;13393;49.378;8.686;2022-10-03T12:48:18;7.53;;;2.10;;
25479;SDS011;13393;49.378;8.686;2022-10-03T12:50:51;8.10;;;2.30;;
25479;SDS011;13393;49.378;8.686;2022-10-03T12:53:31;10.15;;;2.30;;
25479;SDS011;13393;49.378;8.686;2022-10-03T12:58:54;7.40;;;2.40;;
25479;SDS011;13393;49.378;8.686;2022-10-03T13:01:26;6.57;;;1.70;;
25479;SDS011;13393;49.378;8.686;2022-10-03T13:03:54;5.78;;;2.20;;
25479;SDS011;13393;49.378;8.686;2022-10-03T13:06:27;4.95;;;1.95;;
25479;SDS011;13393;49.378;8.686;2022-10-03T13:09:03;6.00;;;2.25;;
25479;SDS011;13393;49.378;8.686;2022-10-03T13:11:35;10.23;;;3.25;;
25479;SDS011;13393;49.378;8.686;2022-10-03T13:14:18;6.28;;;2.85;;
25479;SDS011;13393;49.378;8.686;2022-10-03T13:16:49;5.10;;;2.65;;
25479;SDS011;13393;49.378;8.686;2022-10-03T13:19:20;5.05;;;2.03;;
25479;SDS011;13393;49.378;8.686;2022-10-03T13:21:52;4.30;;;1.67;;
25479;SDS011;13393;49.378;8.686;2022-10-03T13:24:22;4.35;;;1.88;;
25479;SDS011;13393;49.378;8.686;2022-10-03T13:26:52;4.43;;;1.85;;
25479;SDS011;13393;49.378;8.686;2022-10-03T13:29:26;7.05;;;1.92;;
25479;SDS011;13393;49.378;8.686;2022-10-03T13:32:01;5.05;;;1.83;;
25479;SDS011;13393;49.378;8.686;2022-10-03T13:34:30;6.95;;;2.42;;
25479;SDS011;13393;49.378;8.686;2022-10-03T13:36:58;5.88;;;1.92;;
25479;SDS011;13393;49.378;8.686;2022-10-03T13:39:32;6.05;;;2.00;;
25479;SDS011;13393;49.378;8.686;2022-10-03T13:42:07;4.73;;;2.10;;
25479;SDS011;13393;49.378;8.686;2022-10-03T13:44:37;5.25;;;1.70;;
25479;SDS011;13393;49.378;8.686;2022-10-03T13:47:09;5.28;;;2.45;;
25479;SDS011;13393;49.378;8.686;2022-10-03T13:49:39;5.35;;;2.22;;
25479;SDS011;13393;49.378;8.686;2022-10-03T13:52:14;4.05;;;1.80;;
25479;SDS011;13393;49.378;8.686;2022-10-03T13:54:47;4.68;;;2.00;;
25479;SDS011;13393;49.378;8.686;2022-10-03T13:57:20;6.22;;;1.95;;
25479;SDS011;13393;49.378;8.686;2022-10-03T13:59:53;5.45;;;2.20;;
25479;SDS011;13393;49.378;8.686;2022-10-03T14:02:33;7.07;;;2.20;;
25479;SDS011;13393;49.378;8.686;2022-10-03T14:05:08;5.72;;;2.33;;
25479;SDS011;13393;49.378;8.686;2022-10-03T14:07:44;9.02;;;1.80;;
25479;SDS011;13393;49.378;8.686;2022-10-03T14:13:03;7.53;;;1.98;;
25479;SDS011;13393;49.378;8.686;2022-10-03T14:15:39;5.63;;;2.08;;
25479;SDS011;13393;49.378;8.686;2022-10-03T14:18:13;5.47;;;2.55;;
25479;SDS011;13393;49.378;8.686;2022-10-03T14:23:25;3.15;;;2.00;;
25479;SDS011;13393;49.378;8.686;2022-10-03T14:25:54;7.22;;;2.28;;
25479;SDS011;13393;49.378;8.686;2022-10-03T14:28:24;6.38;;;2.42;;
25479;SDS011;13393;49.378;8.686;2022-10-03T14:30:57;4.93;;;2.35;;
25479;SDS011;13393;49.378;8.686;2022-10-03T14:33:30;7.03;;;3.00;;
25479;SDS011;13393;49.378;8.686;2022-10-03T14:36:02;4.95;;;2.50;;
25479;SDS011;13393;49.378;8.686;2022-10-03T14:38:46;8.25;;;2.47;;
25479;SDS011;13393;49.378;8.686;2022-10-03T14:44:11;5.32;;;2.30;;
25479;SDS011;13393;49.378;8.686;2022-10-03T14:46:40;7.28;;;2.35;;
25479;SDS011;13393;49.378;8.686;2022-10-03T14:49:10;6.65;;;2.03;;
25479;SDS011;13393;49.378;8.686;2022-10-03T14:51:42;6.50;;;1.92;;
25479;SDS011;13393;49.378;8.686;2022-10-03T14:54:23;6.13;;;2.20;;
25479;SDS011;13393;49.378;8.686;2022-10-03T14:56:51;5.28;;;2.45;;
25479;SDS011;13393;49.378;8.686;2022-10-03T14:59:19;4.53;;;2.30;;
25479;SDS011;13393;49.378;8.686;2022-10-03T15:01:48;3.35;;;2.00;;
25479;SDS011;13393;49.378;8.686;2022-10-03T15:04:16;8.10;;;2.63;;
25479;SDS011;13393;49.378;8.686;2022-10-03T15:06:48;5.18;;;1.92;;
25479;SDS011;13393;49.378;8.686;2022-10-03T15:09:19;6.05;;;2.45;;
25479;SDS011;13393;49.378;8.686;2022-10-03T15:11:47;7.25;;;2.30;;
25479;SDS011;13393;49.378;8.686;2022-10-03T15:14:13;5.22;;;2.25;;
25479;SDS011;13393;49.378;8.686;2022-10-03T15:16:43;8.75;;;2.53;;
25479;SDS011;13393;49.378;8.686;2022-10-03T15:19:13;6.78;;;2.50;;
25479;SDS011;13393;49.378;8.686;2022-10-03T15:21:42;5.53;;;2.53;;
25479;SDS011;13393;49.378;8.686;2022-10-03T15:24:12;5.30;;;1.90;;
25479;SDS011;13393;49.378;8.686;2022-10-03T15:26:44;6.73;;;2.20;;
25479;SDS011;13393;49.378;8.686;2022-10-03T15:29:14;6.47;;;2.20;;
25479;SDS011;13393;49.378;8.686;2022-10-03T15:31:41;4.93;;;2.00;;
25479;SDS011;13393;49.378;8.686;2022-10-03T15:34:15;5.47;;;2.33;;
25479;SDS011;13393;49.378;8.686;2022-10-03T15:36:42;3.85;;;2.13;;
25479;SDS011;13393;49.378;8.686;2022-10-03T15:39:15;4.90;;;2.20;;
25479;SDS011;13393;49.378;8.686;2022-10-03T15:41:47;6.30;;;2.47;;
25479;SDS011;13393;49.378;8.686;2022-10-03T15:44:15;4.53;;;2.17;;
25479;SDS011;13393;49.378;8.686;2022-10-03T15:46:44;5.95;;;2.20;;
25479;SDS011;13393;49.378;8.686;2022-10-03T15:49:15;6.05;;;2.20;;
25479;SDS011;13393;49.378;8.686;2022-10-03T15:51:45;8.32;;;2.20;;
25479;SDS011;13393;49.378;8.686;2022-10-03T15:54:13;5.25;;;2.08;;
25479;SDS011;13393;49.378;8.686;2022-10-03T15:56:42;4.00;;;2.00;;
25479;SDS011;13393;49.378;8.686;2022-10-03T15:59:16;6.25;;;2.17;;
25479;SDS011;13393;49.378;8.686;2022-10-03T16:01:44;3.38;;;1.70;;
25479;SDS011;13393;49.378;8.686;2022-10-03T16:04:17;7.07;;;2.33;;
25479;SDS011;13393;49.378;8.686;2022-10-03T16:06:45;5.05;;;2.30;;
25479;SDS011;13393;49.378;8.686;2022-10-03T16:09:15;7.03;;;2.30;;
25479;SDS011;13393;49.378;8.686;2022-10-03T16:11:49;6.13;;;2.07;;
25479;SDS011;13393;49.378;8.686;2022-10-03T16:14:20;5.95;;;2.20;;
25479;SDS011;13393;49.378;8.686;2022-10-03T16:16:50;7.93;;;2.60;;
25479;SDS011;13393;49.378;8.686;2022-10-03T16:19:24;5.20;;;2.42;;
25479;SDS011;13393;49.378;8.686;2022-10-03T16:21:55;6.07;;;2.30;;
25479;SDS011;13393;49.378;8.686;2022-10-03T16:24:28;4.00;;;2.05;;
25479;SDS011;13393;49.378;8.686;2022-10-03T16:26:58;8.48;;;2.60;;
25479;SDS011;13393;49.378;8.686;2022-10-03T16:29:27;5.22;;;2.35;;
25479;SDS011;13393;49.378;8.686;2022-10-03T16:31:57;5.38;;;2.53;;
25479;SDS011;13393;49.378;8.686;2022-10-03T16:34:29;5.57;;;2.65;;
25479;SDS011;13393;49.378;8.686;2022-10-03T16:36:56;4.93;;;2.42;;
25479;SDS011;13393;49.378;8.686;2022-10-03T16:39:24;5.43;;;2.50;;
25479;SDS011;13393;49.378;8.686;2022-10-03T16:41:52;4.75;;;2.70;;
25479;SDS011;13393;49.378;8.686;2022-10-03T16:44:22;6.97;;;3.80;;
25479;SDS011;13393;49.378;8.686;2022-10-03T16:46:49;7.28;;;3.80;;
25479;SDS011;13393;49.378;8.686;2022-10-03T16:49:29;6.30;;;3.22;;
25479;SDS011;13393;49.378;8.686;2022-10-03T16:52:16;15.07;;;4.50;;
25479;SDS011;13393;49.378;8.686;2022-10-03T16:54:43;12.55;;;5.35;;
25479;SDS011;13393;49.378;8.686;2022-10-03T16:57:11;8.40;;;3.90;;
25479;SDS011;13393;49.378;8.686;2022-10-03T16:59:38;6.93;;;3.88;;
25479;SDS011;13393;49.378;8.686;2022-10-03T17:02:09;7.50;;;3.63;;
25479;SDS011;13393;49.378;8.686;2022-10-03T17:04:36;5.70;;;3.63;;
25479;SDS011;13393;49.378;8.686;2022-10-03T17:07:04;8.85;;;3.45;;
25479;SDS011;13393;49.378;8.686;2022-10-03T17:09:35;10.50;;;4.43;;
25479;SDS011;13393;49.378;8.686;2022-10-03T17:12:02;6.10;;;3.50;;
25479;SDS011;13393;49.378;8.686;2022-10-03T17:14:32;7.35;;;3.72;;
25479;SDS011;13393;49.378;8.686;2022-10-03T17:17:02;11.20;;;4.32;;
25479;SDS011;13393;49.378;8.686;2022-10-03T17:19:30;7.95;;;3.90;;
25479;SDS011;13393;49.378;8.686;2022-10-03T17:22:00;5.88;;;3.75;;
25479;SDS011;13393;49.378;8.686;2022-10-03T17:24:36;7.85;;;4.20;;
25479;SDS011;13393;49.378;8.686;2022-10-03T17:27:06;6.90;;;3.15;;
25479;SDS011;13393;49.378;8.686;2022-10-03T17:29:35;7.15;;;3.65;;
25479;SDS011;13393;49.378;8.686;2022-10-03T17:32:09;11.55;;;3.70;;
25479;SDS011;13393;49.378;8.686;2022-10-03T17:34:38;6.95;;;3.30;;
25479;SDS011;13393;49.378;8.686;2022-10-03T17:37:11;7.90;;;3.20;;
25479;SDS011;13393;49.378;8.686;2022-10-03T17:39:44;7.38;;;3.10;;
25479;SDS011;13393;49.378;8.686;2022-10-03T17:44:58;6.47;;;3.22;;
25479;SDS011;13393;49.378;8.686;2022-10-03T17:47:32;9.60;;;3.10;;
25479;SDS011;13393;49.378;8.686;2022-10-03T17:49:59;6.93;;;3.42;;
25479;SDS011;13393;49.378;8.686;2022-10-03T17:52:28;8.30;;;3.58;;
25479;SDS011;13393;49.378;8.686;2022-10-03T17:54:57;7.13;;;3.85;;
25479;SDS011;13393;49.378;8.686;2022-10-03T17:57:26;7.95;;;4.05;;
25479;SDS011;13393;49.378;8.686;2022-10-03T17:59:55;8.20;;;3.95;;
25479;SDS011;13393;49.378;8.686;2022-10-03T18:02:24;8.00;;;3.75;;
25479;SDS011;13393;49.378;8.686;2022-10-03T18:04:52;7.53;;;4.28;;
25479;SDS011;13393;49.378;8.686;2022-10-03T18:07:20;9.23;;;4.45;;
25479;SDS011;13393;49.378;8.686;2022-10-03T18:09:49;6.95;;;4.15;;
25479;SDS011;13393;49.378;8.686;2022-10-03T18:12:19;9.65;;;4.40;;
25479;SDS011;13393;49.378;8.686;2022-10-03T18:14:56;10.98;;;3.92;;
25479;SDS011;13393;49.378;8.686;2022-10-03T18:17:27;11.57;;;4.55;;
25479;SDS011;13393;49.378;8.686;2022-10-03T18:20:01;7.28;;;4.45;;
25479;SDS011;13393;49.378;8.686;2022-10-03T18:22:33;5.72;;;3.80;;
25479;SDS011;13393;49.378;8.686;2022-10-03T18:25:05;10.70;;;4.65;;
25479;SDS011;13393;49.378;8.686;2022-10-03T18:30:40;8.55;;;4.55;;
25479;SDS011;13393;49.378;8.686;2022-10-03T18:33:10;7.75;;;4.22;;
25479;SDS011;13393;49.378;8.686;2022-10-03T18:35:38;12.20;;;6.07;;
25479;SDS011;13393;49.378;8.686;2022-10-03T18:38:10;10.68;;;4.70;;
25479;SDS011;13393;49.378;8.686;2022-10-03T18:40:39;9.15;;;4.88;;
25479;SDS011;13393;49.378;8.686;2022-10-03T18:43:14;9.90;;;5.22;;